Latest Weather Observations for Giles*

IDW60801

Issued at 9:03 pm WST Wednesday 29 March 2017 (issued every 30 minutes, with the page automatically refreshed every 10 minutes)

About weather observations | Map of weather stations | Latest weather observations for WA | Other Formats
Station Details ID: 013017 Name: GILES METEOROLOGICAL OFFICE Lat: -25.03 Lon: 128.30 Height: 598.0 m
Data from the previous 72 hours. | See also: Recent months at Giles*

* Giles observations are collected in the South Australia time zone, which includes daylight saving in the summer period. Therefore, Rain since 9am value is with respect to South Australia local time.

Date/Time
WST
Temp
°C
App
Temp
°C
Dew
Point
°C
Rel
Hum
%
Delta-T
°C
Wind Press
QNH
hPa
Press
MSL
hPa
Rain since
9am
mm
Dir  Spd
km/h
Gust
km/h
Spd
kts
Gust
kts
29/09:00pm 26.2 19.0 3.0 22 11.7 SSE 30 44 16 24 1018.4 1014.3 0.0
29/08:30pm 26.3 19.2 3.5 23 11.6 SSE 30 43 16 23 1018.5 1014.4 0.0
29/08:00pm 26.8 20.0 3.2 22 12.0 SSE 28 39 15 21 1018.3 1014.2 0.0
29/07:30pm 26.8 21.0 4.5 24 11.6 SSE 24 39 13 21 1018.2 1014.1 0.0
29/07:00pm 26.6 21.4 7.4 29 10.5 SSE 24 30 13 16 1017.9 1013.7 0.0
29/06:30pm 25.3 22.8 12.4 44 7.6 SE 17 20 9 11 1017.8 1013.6 0.0
29/06:00pm 25.3 24.4 13.7 48 7.0 SE 11 15 6 8 1017.9 1013.7 0.0
29/05:30pm 24.5 24.0 14.9 55 5.9 SSW 11 15 6 8 1018.0 1013.9 0.0
29/05:00pm 27.0 24.0 10.5 35 9.5 SSW 17 30 9 16 1018.2 1014.1 0.0
29/04:30pm 28.1 21.5 7.9 28 11.2 S 32 44 17 24 1016.7 1012.6 0.0
29/04:04pm 29.5 22.7 6.7 23 12.5 S 32 50 17 27 1016.1 1011.9 0.0
29/04:00pm 29.8 22.9 6.4 23 12.8 S 32 46 17 25 1016.2 1012.0 0.0
29/03:30pm 30.3 23.5 6.7 22 13.0 S 32 46 17 25 1015.9 1011.7 0.0
29/03:00pm 31.2 24.3 6.3 21 13.7 S 32 46 17 25 1015.7 1011.5 0.0
29/02:30pm 31.3 24.1 5.8 20 13.9 S 33 46 18 25 1015.4 1011.3 0.0
29/02:00pm 32.3 25.1 5.9 19 14.5 S 33 46 18 25 1015.2 1011.1 0.0
29/01:30pm 33.4 27.2 6.2 18 15.1 SSW 28 41 15 22 1015.0 1010.9 0.0
29/01:00pm 34.1 28.3 6.3 18 15.5 SSW 26 37 14 20 1014.9 1010.8 0.0
29/12:30pm 34.6 29.7 7.0 18 15.6 SSW 22 30 12 16 1015.0 1010.9 0.0
29/12:00pm 34.2 31.7 8.3 20 14.9 SW 11 15 6 8 1015.2 1011.1 0.0
29/11:30am 33.4 31.8 10.2 24 13.7 ENE 9 15 5 8 1015.7 1011.5 0.0
29/11:00am 33.1 31.2 10.5 25 13.4 N 11 17 6 9 1016.2 1012.0 0.0
29/10:30am 33.7 31.6 9.6 22 14.1 E 11 17 6 9 1016.4 1012.2 0.0
29/10:00am 31.8 30.8 10.9 27 12.4 ENE 7 19 4 10 1016.7 1012.6 0.0
29/09:30am 31.3 28.2 9.0 25 12.8 NNE 15 20 8 11 1016.9 1012.8 0.0
29/09:00am 30.6 27.7 8.1 24 12.7 NNE 13 20 7 11 1016.9 1012.8 0.0
29/08:30am 30.5 27.6 8.2 25 12.6 ENE 13 20 7 11 1016.7 1012.6 0.0
29/08:00am 30.0 27.5 8.1 25 12.3 E 11 17 6 9 1016.4 1012.2 0.0
29/07:30am 29.3 26.3 7.5 25 12.1 E 13 20 7 11 1015.9 1011.7 0.0
29/07:00am 29.2 25.3 7.3 25 12.1 ESE 17 20 9 11 1015.3 1011.2 0.0
29/06:30am 27.5 24.5 7.5 28 11.0 ESE 13 19 7 10 1015.1 1011.0 0.0
29/06:00am 25.2 23.4 8.1 33 9.4 SE 7 9 4 5 1015.0 1010.9 0.0
29/05:30am 25.1 22.9 7.9 33 9.4 SE 9 11 5 6 1014.7 1010.5 0.0
29/05:00am 25.5 23.7 8.0 33 9.6 SE 7 11 4 6 1014.4 1010.2 0.0
29/04:30am 25.9 22.8 7.3 30 10.1 ESE 13 19 7 10 1014.1 1009.9 0.0
29/04:00am 26.3 23.3 7.5 30 10.3 SSE 13 17 7 9 1014.1 1009.9 0.0
29/03:30am 26.3 23.6 7.5 30 10.3 SSE 11 15 6 8 1013.6 1009.5 0.0
29/03:00am 26.3 23.6 7.5 30 10.3 SE 11 15 6 8 1013.4 1009.3 0.0
29/02:30am 26.7 23.2 7.0 28 10.7 SE 15 20 8 11 1013.3 1009.1 0.0
29/02:00am 26.8 23.3 7.2 28 10.7 SE 15 20 8 11 1013.5 1009.4 0.0
29/01:30am 27.1 23.2 7.1 28 10.9 SE 17 20 9 11 1013.5 1009.4 0.0
29/01:00am 27.2 23.7 7.3 28 10.9 SE 15 20 8 11 1013.6 1009.5 0.0
29/12:30am 27.3 23.8 7.2 28 11.0 SE 15 20 8 11 1013.8 1009.6 0.0
29/12:00am 27.1 24.0 7.4 28 10.8 SE 13 17 7 9 1013.9 1009.7 0.0
 
Date/Time
WST
Temp
°C
App
Temp
°C
Dew
Point
°C
Rel
Hum
%
Delta-T
°C
Wind Press
QNH
hPa
Press
MSL
hPa
Rain since
9am
mm
Dir  Spd
km/h
Gust
km/h
Spd
kts
Gust
kts
28/11:30pm 27.2 24.2 7.6 29 10.8 SE 13 15 7 8 1013.9 1009.7 0.0
28/11:00pm 27.0 25.0 8.8 31 10.2 SE 9 11 5 6 1014.1 1009.9 0.0
28/10:30pm 28.1 25.0 7.4 27 11.4 SSE 13 17 7 9 1014.1 1009.9 0.0
28/10:00pm 28.8 25.4 7.5 26 11.8 SSE 15 19 8 10 1014.3 1010.1 0.0
28/09:30pm 29.7 25.3 6.5 23 12.7 SSE 19 28 10 15 1014.1 1009.9 0.0
28/09:00pm 30.1 26.2 6.9 23 12.8 SSE 17 26 9 14 1014.1 1009.9 0.0
28/08:30pm 30.7 26.2 7.1 22 13.1 SSE 20 28 11 15 1013.9 1009.7 0.0
28/08:00pm 31.2 26.4 7.5 22 13.3 SSE 22 32 12 17 1013.8 1009.6 0.0
28/07:30pm 32.0 27.7 7.8 22 13.7 S 20 30 11 16 1013.4 1009.3 0.0
28/07:00pm 32.7 28.4 7.9 21 14.1 S 20 30 11 16 1013.1 1008.9 0.0
28/06:30pm 33.3 29.4 8.7 22 14.2 SSE 19 30 10 16 1012.7 1008.5 0.0
28/06:16pm 33.4 30.8 9.2 22 14.1 SSW 13 35 7 19 1012.4 1008.2 0.0
28/06:00pm 33.6 34.3 13.5 29 12.5 W 2 6 1 3 1012.2 1008.0 0.0
28/05:30pm 34.7 34.4 12.6 26 13.6 NW 6 7 3 4 1012.2 1008.0 0.0
28/05:00pm 35.5 35.0 12.0 24 14.4 WNW 6 9 3 5 1012.0 1007.8 0.0
28/04:30pm 35.8 34.4 10.9 22 15.0 NW 9 13 5 7 1012.0 1007.8 0.0
28/04:00pm 36.0 35.3 11.5 22 14.9 WSW 6 11 3 6 1011.8 1007.7 0.0
28/03:30pm 36.1 35.2 11.4 22 15.0 WNW 7 15 4 8 1011.8 1007.7 0.0
28/03:00pm 35.9 34.9 12.4 24 14.5 SW 9 17 5 9 1011.8 1007.7 0.0
28/02:30pm 36.6 35.8 13.0 24 14.7 WNW 9 15 5 8 1012.1 1007.9 0.0
28/02:00pm 35.6 34.4 12.8 25 14.1 WSW 11 17 6 9 1012.4 1008.2 0.0
28/01:30pm 35.1 34.0 13.2 26 13.6 WNW 11 17 6 9 1012.7 1008.5 0.0
28/01:00pm 34.9 34.3 13.6 27 13.3 NNE 9 17 5 9 1013.1 1008.9 0.0
28/12:30pm 34.7 34.0 13.3 27 13.3 WNW 9 20 5 11 1013.4 1009.3 0.0
28/12:00pm 35.1 34.0 13.0 26 13.7 N 11 17 6 9 1013.9 1009.7 0.0
28/11:30am 34.5 32.9 12.7 26 13.4 NNW 13 20 7 11 1014.4 1010.2 0.0
28/11:00am 33.8 33.5 13.3 29 12.7 NNE 7 13 4 7 1014.6 1010.4 0.0
28/10:30am 34.0 32.9 13.1 28 12.9 NNE 11 20 6 11 1014.9 1010.8 0.0
28/10:00am 33.1 31.4 12.4 28 12.6 NNE 13 19 7 10 1015.2 1011.1 0.0
28/09:30am 31.5 30.7 12.8 32 11.4 E 9 20 5 11 1015.8 1011.6 0.0
28/09:00am 30.9 29.4 11.9 31 11.4 ENE 11 19 6 10 1016.1 1011.9 0.0
28/08:30am 30.8 28.2 10.8 29 11.8 E 15 20 8 11 1016.2 1012.0 0.0
28/08:00am 29.6 26.8 10.1 29 11.3 E 15 20 8 11 1016.3 1012.1 0.0
28/07:30am 27.6 24.9 10.5 34 9.9 E 15 20 8 11 1016.2 1012.0 0.0
28/07:00am 26.3 23.5 10.0 36 9.3 E 15 22 8 12 1016.0 1011.8 0.0
28/06:30am 23.8 22.2 10.2 42 7.7 ESE 9 13 5 7 1015.8 1011.6 0.0
28/06:00am 22.1 20.9 10.4 47 6.6 S 7 9 4 5 1015.8 1011.6 0.0
28/05:30am 22.0 20.8 10.4 47 6.5 SSE 7 7 4 4 1015.6 1011.4 0.0
28/05:00am 22.7 21.3 10.9 47 6.7 SE 9 13 5 7 1015.4 1011.3 0.0
28/04:30am 23.4 21.0 10.1 43 7.5 ESE 13 17 7 9 1015.0 1010.9 0.0
28/04:00am 23.9 21.6 10.3 42 7.7 ESE 13 19 7 10 1014.8 1010.6 0.0
28/03:30am 24.6 21.8 9.9 39 8.3 ESE 15 20 8 11 1014.9 1010.8 0.0
28/03:00am 24.7 21.6 10.3 40 8.2 ESE 17 26 9 14 1014.8 1010.6 0.0
28/02:30am 24.9 22.3 10.8 41 8.1 ESE 15 24 8 13 1015.2 1011.1 0.0
28/02:00am 24.9 22.4 11.2 42 7.9 ESE 15 20 8 11 1015.0 1010.9 0.0
28/01:30am 24.7 22.4 11.6 44 7.6 SE 15 20 8 11 1015.3 1011.2 0.0
28/01:00am 24.5 22.6 11.8 45 7.4 ESE 13 17 7 9 1015.4 1011.3 0.0
28/12:30am 24.6 22.3 11.7 44 7.5 SE 15 20 8 11 1015.7 1011.5 0.0
28/12:00am 24.9 23.4 11.9 44 7.6 SE 11 19 6 10 1016.1 1011.9 0.0
 
Date/Time
WST
Temp
°C
App
Temp
°C
Dew
Point
°C
Rel
Hum
%
Delta-T
°C
Wind Press
QNH
hPa
Press
MSL
hPa
Rain since
9am
mm
Dir  Spd
km/h
Gust
km/h
Spd
kts
Gust
kts
27/11:30pm 25.3 23.0 11.8 43 7.9 SE 15 19 8 10 1016.0 1011.8 0.0
27/11:00pm 25.6 22.9 11.8 42 8.1 SE 17 22 9 12 1015.9 1011.7 0.0
27/10:30pm 25.5 23.2 11.8 42 8.0 SE 15 20 8 11 1016.1 1011.9 0.0
27/10:00pm 26.1 23.4 11.8 41 8.4 SE 17 22 9 12 1016.4 1012.2 0.0
27/09:30pm 26.5 23.5 11.9 40 8.6 SE 19 24 10 13 1016.7 1012.6 0.0
27/09:00pm 27.0 23.7 11.7 38 9.0 SSE 20 32 11 17 1016.7 1012.6 0.0
27/08:30pm 27.5 23.9 11.7 37 9.3 SSE 22 32 12 17 1016.6 1012.5 0.0
27/08:00pm 27.8 24.2 11.9 37 9.4 SSE 22 33 12 18 1016.5 1012.4 0.0
27/07:30pm 28.1 23.8 12.1 37 9.5 SSE 26 35 14 19 1016.2 1012.0 0.0
27/07:00pm 28.3 23.8 12.6 38 9.4 SSE 28 37 15 20 1015.8 1011.6 0.0
27/06:30pm 28.7 24.3 13.0 38 9.5 SSE 28 39 15 21 1015.3 1011.2 0.0
27/06:00pm 29.3 25.0 13.2 37 9.8 SSE 28 39 15 21 1014.9 1010.8 0.0
27/05:30pm 29.8 25.1 13.2 36 10.1 SSE 30 39 16 21 1014.5 1010.3 0.0
27/05:00pm 30.6 25.6 13.5 35 10.5 SSE 32 43 17 23 1014.3 1010.1 0.0
27/04:30pm 31.7 26.7 13.5 33 11.2 SSE 32 44 17 24 1014.3 1010.1 0.0
27/04:00pm 32.1 27.6 13.7 32 11.4 SSE 30 44 16 24 1014.1 1009.9 0.0
27/03:30pm 32.7 28.2 13.7 31 11.8 SSE 30 39 16 21 1013.9 1009.7 0.0
27/03:00pm 33.3 28.5 13.9 31 12.1 SSE 32 41 17 22 1014.0 1009.8 0.0
27/02:30pm 34.4 29.9 13.8 29 12.9 SSE 30 44 16 24 1013.9 1009.7 0.0
27/02:05pm 34.3 30.4 14.3 30 12.6 SSE 28 46 15 25 1013.9 1009.7 0.0
27/02:00pm 33.8 29.0 14.0 30 12.4 S 32 46 17 25 1013.9 1009.7 0.0
27/01:30pm 34.8 30.5 14.4 29 12.9 SSE 30 41 16 22 1013.8 1009.6 0.0
27/01:00pm 34.7 29.9 14.6 30 12.7 SSE 33 48 18 26 1013.9 1009.7 0.0
27/12:44pm 35.4 31.2 14.6 28 13.2 SSE 30 48 16 26 1014.1 1009.9 0.0
27/12:30pm 34.2 29.7 14.8 31 12.3 SSE 32 44 17 24 1014.2 1010.0 0.0
27/12:00pm 34.7 30.7 15.3 31 12.4 SSE 30 43 16 23 1014.6 1010.4 0.0
27/11:30am 34.1 29.7 15.7 33 11.8 SSE 33 46 18 25 1015.0 1010.9 0.0
27/11:00am 34.1 30.4 15.1 32 12.1 SSE 28 44 15 24 1015.3 1011.2 0.0
27/10:30am 33.7 29.1 15.1 32 11.8 SSE 33 48 18 26 1015.8 1011.6 0.0
27/10:10am 33.2 29.5 15.0 33 11.5 SSE 28 46 15 25 1015.8 1011.6 0.0
27/10:00am 32.8 28.8 15.1 34 11.2 SE 30 41 16 22 1015.9 1011.7 0.0
27/09:30am 33.1 29.4 14.9 33 11.5 SE 28 43 15 23 1016.0 1011.8 0.0
27/09:00am 32.4 29.2 15.2 35 10.9 SE 26 37 14 20 1016.1 1011.9 0.0
27/08:30am 30.7 27.2 15.5 39 9.6 SE 28 39 15 21 1016.1 1011.9 0.0
27/08:00am 29.7 26.7 15.8 43 8.8 SE 26 37 14 20 1015.9 1011.7 0.0
27/07:30am 28.9 25.5 15.9 45 8.2 SE 28 39 15 21 1015.6 1011.4 0.0
27/07:00am 27.9 25.0 16.0 48 7.5 SSE 26 35 14 19 1015.2 1011.1 0.0
27/06:30am 26.7 24.8 15.3 49 7.1 SSE 19 30 10 16 1014.8 1010.6 0.0
27/06:00am 25.1 24.2 14.8 52 6.3 SE 13 15 7 8 1014.6 1010.4 0.0
27/05:30am 24.4 24.4 15.1 56 5.7 SE 9 11 5 6 1014.4 1010.2 0.0
27/05:00am 25.0 24.5 14.9 53 6.2 SE 11 13 6 7 1014.0 1009.8 0.0
27/04:30am 25.5 24.6 14.8 51 6.6 SSE 13 17 7 9 1014.1 1009.9 0.0
27/04:00am 24.3 24.4 15.4 57 5.5 SSE 9 13 5 7 1014.0 1009.8 0.0
27/03:30am 24.9 24.3 15.6 56 5.8 SE 13 15 7 8 1013.4 1009.3 0.0
27/03:00am 25.8 25.5 15.5 53 6.4 ESE 11 15 6 8 1012.9 1008.7 0.0
27/02:30am 25.3 25.0 15.5 54 6.1 SE 11 15 6 8 1013.0 1008.8 0.0
27/02:00am 26.2 25.9 15.4 51 6.7 ESE 11 13 6 7 1013.1 1008.9 0.0
27/01:30am 26.4 25.7 15.5 51 6.8 SE 13 13 7 7 1013.5 1009.4 0.0
27/01:00am 27.0 26.6 15.3 48 7.3 SE 11 15 6 8 1013.9 1009.7 0.0
27/12:30am 27.2 26.8 15.3 48 7.4 SE 11 15 6 8 1014.1 1009.9 0.0
27/12:00am 27.5 27.1 15.1 46 7.7 SE 11 15 6 8 1014.5 1010.3 0.0
 
Date/Time
WST
Temp
°C
App
Temp
°C
Dew
Point
°C
Rel
Hum
%
Delta-T
°C
Wind Press
QNH
hPa
Press
MSL
hPa
Rain since
9am
mm
Dir  Spd
km/h
Gust
km/h
Spd
kts
Gust
kts
26/11:30pm 27.6 27.0 14.5 44 8.1 SSW 11 17 6 9 1014.4 1010.2 0.0
26/11:00pm 28.2 28.5 14.6 43 8.4 SW 6 9 3 5 1014.5 1010.3 0.0
26/10:30pm 28.8 28.3 13.8 39 9.2 SSW 9 13 5 7 1014.4 1010.2 0.0
26/10:00pm 29.5 28.0 13.2 36 9.9 SW 13 19 7 10 1014.4 1010.2 0.0
26/09:30pm 29.4 28.0 12.2 34 10.3 SW 11 15 6 8 1014.1 1009.9 0.0
26/09:00pm 30.0 30.3 13.3 36 10.2 NNE 4 7 2 4 1013.8 1009.6 0.0
26/08:30pm 30.3 29.9 13.1 34 10.5 SW 7 11 4 6 1013.4 1009.3 0.0
26/08:00pm 31.4 30.0 12.2 30 11.6 SW 11 17 6 9 1013.1 1008.9 0.0
26/07:30pm 32.9 29.5 11.2 26 13.0 SW 20 26 11 14 1012.8 1008.6 0.0
26/07:00pm 33.5 30.3 9.9 23 13.9 WSW 17 24 9 13 1012.1 1007.9 0.0

Other Formats:

Comma delimited format used in spreadsheet applications
http://www.bom.gov.au/fwo/IDW60801/IDW60801.94461.axf

JavaScript Object Notation format (JSON) in row-major order
http://www.bom.gov.au/fwo/IDW60801/IDW60801.94461.json